sensor_id;sensor_type;location;lat;lon;timestamp;pressure;altitude;pressure_sealevel;temperature;humidity
71476;BME280;59286;59.274;17.974;2024-03-23T00:55:10;99167.84;;;2.89;100.00
71476;BME280;59286;59.274;17.974;2024-03-23T00:57:36;99150.34;;;2.81;100.00
71476;BME280;59286;59.274;17.974;2024-03-23T01:00:01;99160.13;;;2.84;100.00
71476;BME280;59286;59.274;17.974;2024-03-23T01:02:27;99161.19;;;2.83;100.00
71476;BME280;59286;59.274;17.974;2024-03-23T01:04:52;99155.84;;;2.74;100.00
71476;BME280;59286;59.274;17.974;2024-03-23T01:07:18;99167.19;;;2.78;100.00
71476;BME280;59286;59.274;17.974;2024-03-23T01:09:43;99151.53;;;2.70;100.00
71476;BME280;59286;59.274;17.974;2024-03-23T01:12:09;99156.44;;;2.71;100.00
71476;BME280;59286;59.274;17.974;2024-03-23T01:14:34;99167.56;;;2.72;100.00
71476;BME280;59286;59.274;17.974;2024-03-23T01:17:01;99164.47;;;2.70;100.00
71476;BME280;59286;59.274;17.974;2024-03-23T01:19:27;99163.97;;;2.68;100.00
71476;BME280;59286;59.274;17.974;2024-03-23T01:21:52;99170.19;;;2.67;100.00
71476;BME280;59286;59.274;17.974;2024-03-23T01:24:17;99166.13;;;2.61;100.00
71476;BME280;59286;59.274;17.974;2024-03-23T01:26:43;99163.53;;;2.61;100.00
71476;BME280;59286;59.274;17.974;2024-03-23T01:29:08;99162.56;;;2.57;100.00
71476;BME280;59286;59.274;17.974;2024-03-23T01:31:33;99159.69;;;2.58;100.00
71476;BME280;59286;59.274;17.974;2024-03-23T01:33:58;99158.16;;;2.57;100.00
71476;BME280;59286;59.274;17.974;2024-03-23T01:36:24;99166.88;;;2.61;100.00
71476;BME280;59286;59.274;17.974;2024-03-23T01:38:50;99153.81;;;2.53;100.00
71476;BME280;59286;59.274;17.974;2024-03-23T01:41:15;99155.63;;;2.52;100.00
71476;BME280;59286;59.274;17.974;2024-03-23T01:43:40;99158.75;;;2.49;100.00
71476;BME280;59286;59.274;17.974;2024-03-23T01:46:06;99164.22;;;2.48;100.00
71476;BME280;59286;59.274;17.974;2024-03-23T01:48:32;99164.97;;;2.48;100.00
71476;BME280;59286;59.274;17.974;2024-03-23T01:50:57;99166.81;;;2.48;100.00
71476;BME280;59286;59.274;17.974;2024-03-23T01:53:23;99164.53;;;2.41;100.00
71476;BME280;59286;59.274;17.974;2024-03-23T01:55:50;99156.13;;;2.31;100.00
71476;BME280;59286;59.274;17.974;2024-03-23T01:58:15;99171.00;;;2.39;100.00
71476;BME280;59286;59.274;17.974;2024-03-23T02:00:41;99174.94;;;2.36;100.00
71476;BME280;59286;59.274;17.974;2024-03-23T02:03:25;99168.22;;;2.35;100.00
71476;BME280;59286;59.274;17.974;2024-03-23T02:05:52;99164.88;;;2.35;100.00
71476;BME280;59286;59.274;17.974;2024-03-23T02:08:22;99152.97;;;2.34;100.00
71476;BME280;59286;59.274;17.974;2024-03-23T02:10:51;99154.34;;;2.26;100.00
71476;BME280;59286;59.274;17.974;2024-03-23T02:13:18;99158.22;;;2.29;100.00
71476;BME280;59286;59.274;17.974;2024-03-23T02:15:44;99148.97;;;2.23;100.00
71476;BME280;59286;59.274;17.974;2024-03-23T02:18:10;99160.03;;;2.28;100.00
71476;BME280;59286;59.274;17.974;2024-03-23T02:20:36;99161.31;;;2.26;100.00
71476;BME280;59286;59.274;17.974;2024-03-23T02:23:02;99161.81;;;2.28;100.00
71476;BME280;59286;59.274;17.974;2024-03-23T02:25:27;99161.81;;;2.28;100.00
71476;BME280;59286;59.274;17.974;2024-03-23T02:27:53;99148.97;;;2.23;100.00
71476;BME280;59286;59.274;17.974;2024-03-23T02:30:19;99150.78;;;2.22;100.00
71476;BME280;59286;59.274;17.974;2024-03-23T02:32:44;99152.38;;;2.18;100.00
71476;BME280;59286;59.274;17.974;2024-03-23T02:35:10;99170.41;;;2.23;100.00
71476;BME280;59286;59.274;17.974;2024-03-23T02:37:35;99165.03;;;2.20;100.00
71476;BME280;59286;59.274;17.974;2024-03-23T02:40:00;99166.63;;;2.16;100.00
71476;BME280;59286;59.274;17.974;2024-03-23T02:42:26;99166.44;;;2.07;100.00
71476;BME280;59286;59.274;17.974;2024-03-23T02:44:51;99162.31;;;2.06;100.00
71476;BME280;59286;59.274;17.974;2024-03-23T02:47:16;99160.00;;;2.05;100.00
71476;BME280;59286;59.274;17.974;2024-03-23T02:49:42;99156.50;;;1.95;100.00
71476;BME280;59286;59.274;17.974;2024-03-23T02:52:07;99170.13;;;2.01;100.00
71476;BME280;59286;59.274;17.974;2024-03-23T02:54:32;99173.50;;;1.96;100.00
71476;BME280;59286;59.274;17.974;2024-03-23T02:56:57;99169.72;;;1.89;100.00
71476;BME280;59286;59.274;17.974;2024-03-23T02:59:23;99169.97;;;1.87;100.00
71476;BME280;59286;59.274;17.974;2024-03-23T03:01:48;99168.94;;;1.88;100.00
71476;BME280;59286;59.274;17.974;2024-03-23T03:04:13;99163.28;;;1.86;100.00
71476;BME280;59286;59.274;17.974;2024-03-23T03:06:39;99156.63;;;1.80;100.00
71476;BME280;59286;59.274;17.974;2024-03-23T03:09:06;99168.19;;;1.83;100.00
71476;BME280;59286;59.274;17.974;2024-03-23T03:11:31;99171.84;;;1.82;100.00
71476;BME280;59286;59.274;17.974;2024-03-23T03:13:56;99162.31;;;1.77;100.00
71476;BME280;59286;59.274;17.974;2024-03-23T03:16:22;99165.63;;;1.83;100.00
71476;BME280;59286;59.274;17.974;2024-03-23T03:18:47;99163.91;;;1.73;100.00
71476;BME280;59286;59.274;17.974;2024-03-23T03:21:12;99170.34;;;1.76;100.00
71476;BME280;59286;59.274;17.974;2024-03-23T03:23:38;99173.50;;;1.68;100.00
71476;BME280;59286;59.274;17.974;2024-03-23T03:26:04;99168.59;;;1.66;100.00
71476;BME280;59286;59.274;17.974;2024-03-23T03:28:31;99177.69;;;1.64;100.00
71476;BME280;59286;59.274;17.974;2024-03-23T03:30:58;99170.19;;;1.62;100.00
71476;BME280;59286;59.274;17.974;2024-03-23T03:33:23;99168.88;;;1.65;100.00
71476;BME280;59286;59.274;17.974;2024-03-23T03:35:48;99171.28;;;1.56;100.00
71476;BME280;59286;59.274;17.974;2024-03-23T03:38:14;99172.28;;;1.60;100.00
71476;BME280;59286;59.274;17.974;2024-03-23T03:40:39;99174.59;;;1.62;100.00
71476;BME280;59286;59.274;17.974;2024-03-23T03:43:06;99168.16;;;1.59;100.00
71476;BME280;59286;59.274;17.974;2024-03-23T03:45:31;99165.56;;;1.59;100.00
71476;BME280;59286;59.274;17.974;2024-03-23T03:47:57;99174.03;;;1.65;100.00
71476;BME280;59286;59.274;17.974;2024-03-23T03:50:22;99177.91;;;1.62;100.00
71476;BME280;59286;59.274;17.974;2024-03-23T03:52:48;99172.81;;;1.57;100.00
71476;BME280;59286;59.274;17.974;2024-03-23T03:55:14;99162.81;;;1.51;100.00
71476;BME280;59286;59.274;17.974;2024-03-23T03:57:39;99166.91;;;1.52;100.00
71476;BME280;59286;59.274;17.974;2024-03-23T04:00:05;99166.63;;;1.53;100.00
71476;BME280;59286;59.274;17.974;2024-03-23T04:02:31;99161.25;;;1.50;100.00
71476;BME280;59286;59.274;17.974;2024-03-23T04:04:56;99172.06;;;1.52;100.00
71476;BME280;59286;59.274;17.974;2024-03-23T04:07:22;99172.31;;;1.55;100.00
71476;BME280;59286;59.274;17.974;2024-03-23T04:09:48;99163.56;;;1.51;100.00
71476;BME280;59286;59.274;17.974;2024-03-23T04:12:14;99168.94;;;1.55;100.00
71476;BME280;59286;59.274;17.974;2024-03-23T04:14:40;99163.56;;;1.51;100.00
71476;BME280;59286;59.274;17.974;2024-03-23T04:17:05;99173.13;;;1.51;100.00
71476;BME280;59286;59.274;17.974;2024-03-23T04:19:30;99175.97;;;1.49;100.00
71476;BME280;59286;59.274;17.974;2024-03-23T04:21:56;99179.31;;;1.50;100.00
71476;BME280;59286;59.274;17.974;2024-03-23T04:24:21;99182.94;;;1.49;100.00
71476;BME280;59286;59.274;17.974;2024-03-23T04:26:47;99168.25;;;1.44;100.00
71476;BME280;59286;59.274;17.974;2024-03-23T04:29:13;99172.63;;;1.44;100.00
71476;BME280;59286;59.274;17.974;2024-03-23T04:31:38;99176.00;;;1.44;100.00
71476;BME280;59286;59.274;17.974;2024-03-23T04:34:04;99175.25;;;1.39;100.00
71476;BME280;59286;59.274;17.974;2024-03-23T04:36:29;99174.97;;;1.45;100.00
71476;BME280;59286;59.274;17.974;2024-03-23T04:38:56;99169.81;;;1.45;100.00
71476;BME280;59286;59.274;17.974;2024-03-23T04:41:21;99161.06;;;1.36;100.00
71476;BME280;59286;59.274;17.974;2024-03-23T04:43:47;99174.97;;;1.45;100.00
71476;BME280;59286;59.274;17.974;2024-03-23T04:46:12;99177.81;;;1.44;100.00
71476;BME280;59286;59.274;17.974;2024-03-23T04:48:37;99171.34;;;1.46;100.00
71476;BME280;59286;59.274;17.974;2024-03-23T04:51:03;99170.06;;;1.44;100.00
71476;BME280;59286;59.274;17.974;2024-03-23T04:53:29;99169.56;;;1.42;100.00
71476;BME280;59286;59.274;17.974;2024-03-23T04:55:57;99176.50;;;1.46;100.00
71476;BME280;59286;59.274;17.974;2024-03-23T04:58:24;99167.25;;;1.40;100.00
71476;BME280;59286;59.274;17.974;2024-03-23T05:00:57;99164.41;;;1.42;100.00
71476;BME280;59286;59.274;17.974;2024-03-23T05:03:22;99170.84;;;1.44;100.00
71476;BME280;59286;59.274;17.974;2024-03-23T05:05:48;99168.50;;;1.48;100.00
71476;BME280;59286;59.274;17.974;2024-03-23T05:08:14;99154.06;;;1.42;100.00
71476;BME280;59286;59.274;17.974;2024-03-23T05:10:41;99168.72;;;1.51;100.00
71476;BME280;59286;59.274;17.974;2024-03-23T05:13:07;99165.41;;;1.46;100.00
71476;BME280;59286;59.274;17.974;2024-03-23T05:15:32;99174.38;;;1.53;100.00
71476;BME280;59286;59.274;17.974;2024-03-23T05:17:57;99157.41;;;1.47;100.00
71476;BME280;59286;59.274;17.974;2024-03-23T05:20:23;99171.28;;;1.56;100.00
71476;BME280;59286;59.274;17.974;2024-03-23T05:22:49;99172.03;;;1.57;100.00
71476;BME280;59286;59.274;17.974;2024-03-23T05:25:14;99168.69;;;1.56;100.00
71476;BME280;59286;59.274;17.974;2024-03-23T05:27:41;99160.19;;;1.56;100.00
71476;BME280;59286;59.274;17.974;2024-03-23T05:30:07;99169.16;;;1.63;100.00
71476;BME280;59286;59.274;17.974;2024-03-23T05:32:32;99167.03;;;1.70;100.00
71476;BME280;59286;59.274;17.974;2024-03-23T05:34:57;99166.72;;;1.77;100.00
71476;BME280;59286;59.274;17.974;2024-03-23T05:37:23;99177.78;;;1.82;100.00
71476;BME280;59286;59.274;17.974;2024-03-23T05:39:48;99168.97;;;1.83;100.00
71476;BME280;59286;59.274;17.974;2024-03-23T05:42:17;99175.09;;;1.92;100.00
71476;BME280;59286;59.274;17.974;2024-03-23T05:44:46;99186.88;;;2.04;100.00
71476;BME280;59286;59.274;17.974;2024-03-23T05:47:13;99190.75;;;2.06;100.00
71476;BME280;59286;59.274;17.974;2024-03-23T05:49:40;99189.66;;;2.12;100.00
71476;BME280;59286;59.274;17.974;2024-03-23T05:52:09;99176.47;;;2.14;100.00
71476;BME280;59286;59.274;17.974;2024-03-23T05:54:35;99176.91;;;2.21;100.00
71476;BME280;59286;59.274;17.974;2024-03-23T05:57:00;99179.41;;;2.26;100.00
71476;BME280;59286;59.274;17.974;2024-03-23T05:59:25;99173.44;;;2.30;100.00
71476;BME280;59286;59.274;17.974;2024-03-23T06:01:52;99178.78;;;2.39;100.00
71476;BME280;59286;59.274;17.974;2024-03-23T06:04:17;99175.09;;;2.45;100.00
71476;BME280;59286;59.274;17.974;2024-03-23T06:06:42;99176.38;;;2.47;100.00
71476;BME280;59286;59.274;17.974;2024-03-23T06:09:08;99185.06;;;2.56;100.00
71476;BME280;59286;59.274;17.974;2024-03-23T06:11:33;99183.41;;;2.65;100.00
71476;BME280;59286;59.274;17.974;2024-03-23T06:13:58;99182.78;;;2.73;100.00
71476;BME280;59286;59.274;17.974;2024-03-23T06:16:24;99181.69;;;2.79;100.00
71476;BME280;59286;59.274;17.974;2024-03-23T06:18:50;99190.69;;;2.82;100.00
71476;BME280;59286;59.274;17.974;2024-03-23T06:21:15;99188.19;;;2.95;100.00
71476;BME280;59286;59.274;17.974;2024-03-23T06:23:41;99183.81;;;2.96;100.00
71476;BME280;59286;59.274;17.974;2024-03-23T06:26:07;99183.16;;;3.04;100.00
71476;BME280;59286;59.274;17.974;2024-03-23T06:28:33;99192.41;;;3.10;100.00
71476;BME280;59286;59.274;17.974;2024-03-23T06:30:58;99193.19;;;3.11;100.00
71476;BME280;59286;59.274;17.974;2024-03-23T06:33:24;99193.88;;;3.16;100.00
71476;BME280;59286;59.274;17.974;2024-03-23T06:35:52;99185.13;;;3.31;100.00
71476;BME280;59286;59.274;17.974;2024-03-23T06:38:18;99188.28;;;3.46;100.00
71476;BME280;59286;59.274;17.974;2024-03-23T06:40:44;99188.09;;;3.56;100.00
71476;BME280;59286;59.274;17.974;2024-03-23T06:43:13;99182.22;;;3.69;100.00
71476;BME280;59286;59.274;17.974;2024-03-23T06:45:39;99190.72;;;3.88;100.00
71476;BME280;59286;59.274;17.974;2024-03-23T06:48:15;99188.63;;;3.90;100.00
71476;BME280;59286;59.274;17.974;2024-03-23T06:50:40;99207.44;;;3.96;100.00
71476;BME280;59286;59.274;17.974;2024-03-23T06:53:05;99187.94;;;3.85;100.00
71476;BME280;59286;59.274;17.974;2024-03-23T06:55:31;99203.13;;;3.91;100.00
71476;BME280;59286;59.274;17.974;2024-03-23T06:57:56;99205.34;;;3.98;100.00
71476;BME280;59286;59.274;17.974;2024-03-23T07:00:22;99212.75;;;4.05;100.00
71476;BME280;59286;59.274;17.974;2024-03-23T07:02:47;99199.78;;;4.05;100.00
71476;BME280;59286;59.274;17.974;2024-03-23T07:05:12;99201.03;;;4.07;100.00
71476;BME280;59286;59.274;17.974;2024-03-23T07:07:38;99201.06;;;4.21;100.00
71476;BME280;59286;59.274;17.974;2024-03-23T07:10:05;99205.00;;;4.32;100.00
71476;BME280;59286;59.274;17.974;2024-03-23T07:12:30;99198.50;;;4.34;100.00
71476;BME280;59286;59.274;17.974;2024-03-23T07:14:56;99200.69;;;4.41;100.00
71476;BME280;59286;59.274;17.974;2024-03-23T07:17:21;99213.19;;;4.52;100.00
71476;BME280;59286;59.274;17.974;2024-03-23T07:19:46;99216.63;;;4.48;100.00
71476;BME280;59286;59.274;17.974;2024-03-23T07:22:12;99203.59;;;4.53;100.00
71476;BME280;59286;59.274;17.974;2024-03-23T07:24:37;99208.69;;;4.58;100.00
71476;BME280;59286;59.274;17.974;2024-03-23T07:27:04;99197.34;;;4.54;100.00
71476;BME280;59286;59.274;17.974;2024-03-23T07:29:29;99203.50;;;4.58;100.00
71476;BME280;59286;59.274;17.974;2024-03-23T07:31:55;99207.41;;;4.55;100.00
71476;BME280;59286;59.274;17.974;2024-03-23T07:34:20;99207.13;;;4.57;100.00
71476;BME280;59286;59.274;17.974;2024-03-23T07:36:45;99213.69;;;4.54;100.00
71476;BME280;59286;59.274;17.974;2024-03-23T07:39:11;99205.00;;;4.59;100.00
71476;BME280;59286;59.274;17.974;2024-03-23T07:41:36;99214.84;;;4.75;100.00
71476;BME280;59286;59.274;17.974;2024-03-23T07:44:02;99211.56;;;4.83;100.00
71476;BME280;59286;59.274;17.974;2024-03-23T07:46:27;99213.84;;;4.85;100.00
71476;BME280;59286;59.274;17.974;2024-03-23T07:48:52;99208.47;;;4.95;100.00
71476;BME280;59286;59.274;17.974;2024-03-23T07:51:21;99199.59;;;4.96;100.00
71476;BME280;59286;59.274;17.974;2024-03-23T07:53:47;99206.34;;;5.11;100.00
71476;BME280;59286;59.274;17.974;2024-03-23T07:56:13;99209.31;;;5.04;100.00
71476;BME280;59286;59.274;17.974;2024-03-23T07:58:41;99202.47;;;5.08;100.00
71476;BME280;59286;59.274;17.974;2024-03-23T08:01:11;99207.56;;;5.13;100.00
71476;BME280;59286;59.274;17.974;2024-03-23T08:03:37;99208.06;;;5.37;100.00
71476;BME280;59286;59.274;17.974;2024-03-23T08:06:21;99200.41;;;5.54;100.00
71476;BME280;59286;59.274;17.974;2024-03-23T08:08:55;99202.50;;;5.66;100.00
71476;BME280;59286;59.274;17.974;2024-03-23T08:11:27;99200.91;;;5.56;100.00
71476;BME280;59286;59.274;17.974;2024-03-23T08:13:52;99207.53;;;5.62;100.00
71476;BME280;59286;59.274;17.974;2024-03-23T08:16:18;99207.91;;;5.56;100.00
71476;BME280;59286;59.274;17.974;2024-03-23T08:18:43;99206.75;;;5.62;100.00
71476;BME280;59286;59.274;17.974;2024-03-23T08:21:09;99210.00;;;5.67;100.00
71476;BME280;59286;59.274;17.974;2024-03-23T08:23:35;99206.09;;;5.78;100.00
71476;BME280;59286;59.274;17.974;2024-03-23T08:26:05;99206.69;;;5.75;100.00
71476;BME280;59286;59.274;17.974;2024-03-23T08:28:32;99190.31;;;5.75;100.00
71476;BME280;59286;59.274;17.974;2024-03-23T08:31:01;99197.78;;;5.90;100.00
71476;BME280;59286;59.274;17.974;2024-03-23T08:33:27;99203.31;;;5.97;100.00
71476;BME280;59286;59.274;17.974;2024-03-23T08:35:58;99200.41;;;5.99;100.00
71476;BME280;59286;59.274;17.974;2024-03-23T08:38:24;99200.56;;;5.94;100.00
71476;BME280;59286;59.274;17.974;2024-03-23T08:40:59;99208.84;;;5.96;100.00
71476;BME280;59286;59.274;17.974;2024-03-23T08:43:25;99200.69;;;5.88;100.00
71476;BME280;59286;59.274;17.974;2024-03-23T08:45:51;99206.66;;;5.89;100.00
71476;BME280;59286;59.274;17.974;2024-03-23T08:48:17;99203.88;;;5.85;100.00
71476;BME280;59286;59.274;17.974;2024-03-23T08:50:43;99205.88;;;5.88;100.00
71476;BME280;59286;59.274;17.974;2024-03-23T08:53:08;99199.34;;;5.91;100.00
71476;BME280;59286;59.274;17.974;2024-03-23T08:55:34;99198.56;;;5.91;100.00
71476;BME280;59286;59.274;17.974;2024-03-23T08:57:59;99199.69;;;5.98;100.00
71476;BME280;59286;59.274;17.974;2024-03-23T09:00:25;99200.78;;;6.06;100.00
71476;BME280;59286;59.274;17.974;2024-03-23T09:02:50;99196.69;;;6.13;100.00
71476;BME280;59286;59.274;17.974;2024-03-23T09:05:16;99199.16;;;6.18;100.00
71476;BME280;59286;59.274;17.974;2024-03-23T09:07:41;99199.34;;;6.22;100.00
71476;BME280;59286;59.274;17.974;2024-03-23T09:10:07;99196.78;;;6.30;100.00
71476;BME280;59286;59.274;17.974;2024-03-23T09:12:32;99196.19;;;6.33;100.00
71476;BME280;59286;59.274;17.974;2024-03-23T09:14:57;99186.53;;;6.34;99.90
71476;BME280;59286;59.274;17.974;2024-03-23T09:17:23;99186.09;;;6.40;100.00
71476;BME280;59286;59.274;17.974;2024-03-23T09:19:48;99189.22;;;6.59;100.00
71476;BME280;59286;59.274;17.974;2024-03-23T09:22:13;99190.16;;;6.63;96.93
71476;BME280;59286;59.274;17.974;2024-03-23T09:24:39;99187.41;;;6.68;98.85
71476;BME280;59286;59.274;17.974;2024-03-23T09:27:05;99182.81;;;6.65;99.65
71476;BME280;59286;59.274;17.974;2024-03-23T09:29:30;99191.25;;;6.79;98.39
71476;BME280;59286;59.274;17.974;2024-03-23T09:31:55;99186.41;;;6.95;96.87
71476;BME280;59286;59.274;17.974;2024-03-23T09:34:21;99190.09;;;7.11;98.64
71476;BME280;59286;59.274;17.974;2024-03-23T09:36:47;99184.59;;;7.21;98.33
71476;BME280;59286;59.274;17.974;2024-03-23T09:39:12;99189.34;;;7.19;97.13
71476;BME280;59286;59.274;17.974;2024-03-23T09:41:39;99188.13;;;7.34;97.16
71476;BME280;59286;59.274;17.974;2024-03-23T09:44:05;99189.31;;;7.53;96.17
71476;BME280;59286;59.274;17.974;2024-03-23T09:46:30;99182.13;;;7.59;94.33
71476;BME280;59286;59.274;17.974;2024-03-23T09:48:59;99178.91;;;7.62;94.39
71476;BME280;59286;59.274;17.974;2024-03-23T09:51:25;99189.63;;;7.69;92.85
71476;BME280;59286;59.274;17.974;2024-03-23T09:53:51;99180.25;;;7.76;92.39
71476;BME280;59286;59.274;17.974;2024-03-23T09:56:17;99171.41;;;7.60;92.00
71476;BME280;59286;59.274;17.974;2024-03-23T09:58:43;99169.84;;;7.59;91.37
71476;BME280;59286;59.274;17.974;2024-03-23T10:01:08;99183.94;;;7.75;92.55
71476;BME280;59286;59.274;17.974;2024-03-23T10:03:44;99171.66;;;7.76;91.91
71476;BME280;59286;59.274;17.974;2024-03-23T10:06:10;99175.19;;;7.80;89.39
71476;BME280;59286;59.274;17.974;2024-03-23T10:08:36;99171.41;;;7.60;89.73
71476;BME280;59286;59.274;17.974;2024-03-23T10:11:15;99170.47;;;7.56;90.75
71476;BME280;59286;59.274;17.974;2024-03-23T10:13:42;99170.63;;;7.60;92.33
71476;BME280;59286;59.274;17.974;2024-03-23T10:16:08;99167.25;;;7.59;92.58
71476;BME280;59286;59.274;17.974;2024-03-23T10:18:40;99167.69;;;7.61;89.38
71476;BME280;59286;59.274;17.974;2024-03-23T10:23:34;99174.25;;;7.93;92.35
71476;BME280;59286;59.274;17.974;2024-03-23T10:28:54;99168.09;;;7.89;88.71
71476;BME280;59286;59.274;17.974;2024-03-23T10:31:20;99167.00;;;7.99;91.05
71476;BME280;59286;59.274;17.974;2024-03-23T10:33:47;99172.44;;;8.23;88.96
71476;BME280;59286;59.274;17.974;2024-03-23T10:36:12;99172.00;;;8.29;87.91
71476;BME280;59286;59.274;17.974;2024-03-23T10:38:40;99172.28;;;8.36;85.16
71476;BME280;59286;59.274;17.974;2024-03-23T10:41:08;99166.47;;;8.31;85.92
71476;BME280;59286;59.274;17.974;2024-03-23T10:43:35;99170.78;;;8.27;86.17
71476;BME280;59286;59.274;17.974;2024-03-23T10:46:01;99171.38;;;8.24;87.53
71476;BME280;59286;59.274;17.974;2024-03-23T10:48:26;99164.78;;;8.35;87.86
71476;BME280;59286;59.274;17.974;2024-03-23T10:50:53;99170.25;;;8.42;88.41
71476;BME280;59286;59.274;17.974;2024-03-23T10:53:19;99160.78;;;8.66;88.84
71476;BME280;59286;59.274;17.974;2024-03-23T10:55:45;99163.41;;;8.87;86.07
71476;BME280;59286;59.274;17.974;2024-03-23T10:58:11;99158.31;;;8.91;83.38
71476;BME280;59286;59.274;17.974;2024-03-23T11:00:38;99171.81;;;8.72;83.49
71476;BME280;59286;59.274;17.974;2024-03-23T11:03:32;99172.69;;;8.47;83.47
71476;BME280;59286;59.274;17.974;2024-03-23T11:06:01;99172.47;;;8.31;83.76
71476;BME280;59286;59.274;17.974;2024-03-23T11:08:38;99170.34;;;8.16;84.45
71476;BME280;59286;59.274;17.974;2024-03-23T11:11:20;99178.34;;;8.03;83.40
71476;BME280;59286;59.274;17.974;2024-03-23T11:13:49;99178.84;;;7.88;83.39
71476;BME280;59286;59.274;17.974;2024-03-23T11:16:16;99174.41;;;7.79;85.19
71476;BME280;59286;59.274;17.974;2024-03-23T11:18:43;99178.41;;;7.85;85.62
71476;BME280;59286;59.274;17.974;2024-03-23T11:21:09;99171.63;;;8.02;86.62
71476;BME280;59286;59.274;17.974;2024-03-23T11:23:34;99171.91;;;8.00;84.11
71476;BME280;59286;59.274;17.974;2024-03-23T11:26:00;99171.75;;;7.97;85.01
71476;BME280;59286;59.274;17.974;2024-03-23T11:28:25;99171.16;;;7.91;85.03
71476;BME280;59286;59.274;17.974;2024-03-23T11:30:51;99169.38;;;7.83;85.29
71476;BME280;59286;59.274;17.974;2024-03-23T11:33:16;99167.09;;;7.64;85.09
71476;BME280;59286;59.274;17.974;2024-03-23T11:35:42;99169.84;;;7.59;85.71
71476;BME280;59286;59.274;17.974;2024-03-23T11:38:09;99170.34;;;7.53;91.57
71476;BME280;59286;59.274;17.974;2024-03-23T11:40:37;99161.75;;;7.35;96.71
71476;BME280;59286;59.274;17.974;2024-03-23T11:43:05;99165.41;;;7.26;100.00
71476;BME280;59286;59.274;17.974;2024-03-23T11:45:35;99164.69;;;7.25;100.00
71476;BME280;59286;59.274;17.974;2024-03-23T11:48:20;99153.00;;;7.31;100.00
71476;BME280;59286;59.274;17.974;2024-03-23T11:50:50;99159.13;;;7.52;100.00
71476;BME280;59286;59.274;17.974;2024-03-23T11:53:20;99148.19;;;7.76;100.00
71476;BME280;59286;59.274;17.974;2024-03-23T11:55:47;99153.66;;;8.00;100.00
71476;BME280;59286;59.274;17.974;2024-03-23T11:58:13;99153.13;;;8.24;99.63
71476;BME280;59286;59.274;17.974;2024-03-23T12:00:39;99150.88;;;8.43;97.37
71476;BME280;59286;59.274;17.974;2024-03-23T12:03:05;99152.34;;;8.61;97.09
71476;BME280;59286;59.274;17.974;2024-03-23T12:05:32;99141.53;;;8.71;93.78
71476;BME280;59286;59.274;17.974;2024-03-23T12:10:52;99140.06;;;8.82;87.00
71476;BME280;59286;59.274;17.974;2024-03-23T12:13:20;99143.34;;;8.50;87.47
71476;BME280;59286;59.274;17.974;2024-03-23T12:15:48;99151.31;;;8.53;88.30
71476;BME280;59286;59.274;17.974;2024-03-23T12:18:14;99141.88;;;8.32;85.22
71476;BME280;59286;59.274;17.974;2024-03-23T12:20:39;99147.84;;;8.41;87.48
71476;BME280;59286;59.274;17.974;2024-03-23T12:23:09;99138.66;;;8.35;85.14
71476;BME280;59286;59.274;17.974;2024-03-23T12:25:36;99147.91;;;8.24;84.90
71476;BME280;59286;59.274;17.974;2024-03-23T12:28:02;99139.94;;;8.20;85.56
71476;BME280;59286;59.274;17.974;2024-03-23T12:30:27;99146.69;;;8.30;85.49
71476;BME280;59286;59.274;17.974;2024-03-23T12:32:53;99139.91;;;8.29;86.40
71476;BME280;59286;59.274;17.974;2024-03-23T12:35:18;99137.13;;;8.34;83.77
71476;BME280;59286;59.274;17.974;2024-03-23T12:37:44;99137.34;;;8.12;84.92
71476;BME280;59286;59.274;17.974;2024-03-23T12:40:09;99138.00;;;8.00;86.89
71476;BME280;59286;59.274;17.974;2024-03-23T12:42:35;99142.38;;;7.79;91.53
71476;BME280;59286;59.274;17.974;2024-03-23T12:45:00;99136.75;;;7.51;93.58
71476;BME280;59286;59.274;17.974;2024-03-23T12:47:26;99135.38;;;7.37;95.42
71476;BME280;59286;59.274;17.974;2024-03-23T12:49:52;99130.34;;;7.23;94.75
71476;BME280;59286;59.274;17.974;2024-03-23T12:52:17;99132.94;;;7.32;95.08
71476;BME280;59286;59.274;17.974;2024-03-23T12:54:43;99129.41;;;7.36;98.59
71476;BME280;59286;59.274;17.974;2024-03-23T12:57:08;99126.31;;;7.51;97.67
71476;BME280;59286;59.274;17.974;2024-03-23T12:59:33;99132.44;;;7.55;94.28
71476;BME280;59286;59.274;17.974;2024-03-23T13:02:00;99126.72;;;7.70;95.67
71476;BME280;59286;59.274;17.974;2024-03-23T13:04:26;99130.66;;;7.85;91.40
71476;BME280;59286;59.274;17.974;2024-03-23T13:06:51;99131.84;;;8.05;93.48
71476;BME280;59286;59.274;17.974;2024-03-23T13:09:16;99126.44;;;8.10;92.97
71476;BME280;59286;59.274;17.974;2024-03-23T13:11:42;99125.13;;;8.04;91.87
71476;BME280;59286;59.274;17.974;2024-03-23T13:14:07;99133.59;;;7.83;88.70
71476;BME280;59286;59.274;17.974;2024-03-23T13:16:32;99136.88;;;7.63;94.50
71476;BME280;59286;59.274;17.974;2024-03-23T13:18:58;99145.50;;;7.21;95.84
71476;BME280;59286;59.274;17.974;2024-03-23T13:21:23;99165.19;;;6.54;100.00
71476;BME280;59286;59.274;17.974;2024-03-23T13:23:49;99159.56;;;5.91;100.00
71476;BME280;59286;59.274;17.974;2024-03-23T13:26:16;99177.56;;;5.43;100.00
71476;BME280;59286;59.274;17.974;2024-03-23T13:28:41;99187.84;;;5.12;100.00
71476;BME280;59286;59.274;17.974;2024-03-23T13:31:07;99181.44;;;4.96;100.00
71476;BME280;59286;59.274;17.974;2024-03-23T13:33:33;99171.75;;;4.88;100.00
71476;BME280;59286;59.274;17.974;2024-03-23T13:35:59;99168.44;;;4.96;100.00
71476;BME280;59286;59.274;17.974;2024-03-23T13:38:25;99158.84;;;4.97;100.00
71476;BME280;59286;59.274;17.974;2024-03-23T13:40:54;99143.44;;;5.00;100.00
71476;BME280;59286;59.274;17.974;2024-03-23T13:43:20;99139.97;;;5.05;100.00
71476;BME280;59286;59.274;17.974;2024-03-23T13:45:51;99133.19;;;5.17;100.00
71476;BME280;59286;59.274;17.974;2024-03-23T13:48:19;99141.44;;;5.33;100.00
71476;BME280;59286;59.274;17.974;2024-03-23T13:50:44;99146.81;;;5.36;100.00